Eulenschwang, Germany

2:07 PM CET on December 16, 2017 (GMT +0100)
Altkirchner Straße | | Change Station

Elev 2237 ft 47.94 °N, 11.58 °E | Updated 22 minutes ago

Overcast
Overcast
33.4 °F
Feels Like 33 °F
N
0.6
Wind Variable Wind from South
Gusts 1.9 mph

Today
High -- | Low -- °F
--% Chance of Precip.
Yesterday
High -- | Low -- °F
Precip. -- in
Pressure 29.80 in
Visibility 6.2 miles
Clouds Few 500 ft
Scattered Clouds 800 ft
Mostly Cloudy 1400 ft
Windchill 33 °F
Dew Point 33 °F
Humidity 100%
Rainfall 0.00 in
Snow Depth Not available.
7:57 AM 4:21 PM
Waning Crescent, 3% visible
METAR EDDM 161250Z 28007KT 240V300 9999 -SHSN FEW005 SCT008TCU BKN014 02/01 Q1009 TEMPO 3000 SHSN BKN008
Pressure 29.80 in
Visibility 6.2 miles
Clouds Few 500 ft
Scattered Clouds 800 ft
Mostly Cloudy 1400 ft
Windchill 33 °F
Dew Point 33 °F
Humidity 100%
Rainfall 0.00 in
Snow Depth Not available.
7:57 AM 4:21 PM
Waning Crescent, 3% visible
METAR EDDM 161250Z 28007KT 240V300 9999 -SHSN FEW005 SCT008TCU BKN014 02/01 Q1009 TEMPO 3000 SHSN BKN008

Get Severe Weather Alerts

Thanks for signing up!

Be on the lookout for a verification email in your inbox.

You'll start receiving the daily forecast at 6 AM.

×

10-Day Weather Forecast

×

Almanac

Astronomy

Dec. 16, 2017 Rise Set
Actual Time
Civil Twilight
Nautical Twilight
Astronomical Twilight
Moon
Length of Visible Light
Length of Day
Tomorrow will be .
, % of the Moon is Illuminated

Today's Extremes

Country Highs Country Lows

Community

WunderPhotos

Category 6

Welcome to Category 6. This is the collective home for Weather Underground's featured writeups by Dr. Jeff Masters (right), Bob Henson (left), Chris Burt, and other regular contributors.

Nearby

Air Quality

  Air Quality AQ Index Pollutant
Not available.

Snow Depth

Station Depth Elevation

Earthquake Activity

City Distance Mag. Time & Date
Minimum magnitude displayed is 2.5.

Coastal Water Temperatures

Place Temperature

Stations

Nearby Weather Stations

Station Location Temp. Windchill Dew Point Humidity Wind Precip. Elev Updated Type